sensor_id;sensor_type;location;lat;lon;timestamp;noise_LAeq;noise_LA_min;noise_LA_max;noise_LA01;noise_LA95
72415;Laerm;60995;52.154;4.498;2023-02-24T00:02:04;45.59;37.24;60.64;;
72415;Laerm;60995;52.154;4.498;2023-02-24T00:04:20;42.10;36.97;60.66;;
72415;Laerm;60995;52.154;4.498;2023-02-24T00:06:40;43.23;36.42;60.49;;
72415;Laerm;60995;52.154;4.498;2023-02-24T00:08:58;42.27;35.65;66.31;;
72415;Laerm;60995;52.154;4.498;2023-02-24T00:11:16;44.10;37.30;56.42;;
72415;Laerm;60995;52.154;4.498;2023-02-24T00:13:34;42.82;36.83;59.78;;
72415;Laerm;60995;52.154;4.498;2023-02-24T00:16:02;44.13;36.72;55.08;;
72415;Laerm;60995;52.154;4.498;2023-02-24T00:18:19;41.93;36.95;52.16;;
72415;Laerm;60995;52.154;4.498;2023-02-24T00:20:36;43.42;36.32;70.64;;
72415;Laerm;60995;52.154;4.498;2023-02-24T00:22:52;43.21;36.81;53.20;;
72415;Laerm;60995;52.154;4.498;2023-02-24T00:25:08;42.87;36.74;55.13;;
72415;Laerm;60995;52.154;4.498;2023-02-24T00:27:24;43.46;36.86;55.11;;
72415;Laerm;60995;52.154;4.498;2023-02-24T00:29:44;42.93;36.52;54.60;;
72415;Laerm;60995;52.154;4.498;2023-02-24T00:32:01;42.63;36.71;51.11;;
72415;Laerm;60995;52.154;4.498;2023-02-24T00:34:21;41.01;36.38;47.79;;
72415;Laerm;60995;52.154;4.498;2023-02-24T00:36:38;44.85;37.21;57.68;;
72415;Laerm;60995;52.154;4.498;2023-02-24T00:39:04;43.86;36.94;58.90;;
72415;Laerm;60995;52.154;4.498;2023-02-24T00:41:31;42.52;37.37;55.44;;
72415;Laerm;60995;52.154;4.498;2023-02-24T00:43:49;41.40;36.67;51.24;;
72415;Laerm;60995;52.154;4.498;2023-02-24T00:46:05;43.58;36.88;53.65;;
72415;Laerm;60995;52.154;4.498;2023-02-24T00:48:28;40.72;36.50;47.15;;
72415;Laerm;60995;52.154;4.498;2023-02-24T00:50:44;43.93;36.71;58.45;;
72415;Laerm;60995;52.154;4.498;2023-02-24T00:53:00;41.58;35.58;49.29;;
72415;Laerm;60995;52.154;4.498;2023-02-24T00:55:16;42.50;36.04;52.96;;
72415;Laerm;60995;52.154;4.498;2023-02-24T00:57:34;40.86;35.94;58.08;;
72415;Laerm;60995;52.154;4.498;2023-02-24T00:59:50;40.43;34.75;47.90;;
72415;Laerm;60995;52.154;4.498;2023-02-24T01:02:12;41.59;36.09;63.71;;
72415;Laerm;60995;52.154;4.498;2023-02-24T01:04:29;41.47;36.49;50.36;;
72415;Laerm;60995;52.154;4.498;2023-02-24T01:06:52;41.76;36.59;50.29;;
72415;Laerm;60995;52.154;4.498;2023-02-24T01:09:19;40.76;35.92;47.91;;
72415;Laerm;60995;52.154;4.498;2023-02-24T01:11:36;41.60;36.52;51.63;;
72415;Laerm;60995;52.154;4.498;2023-02-24T01:14:20;40.76;36.04;48.24;;
72415;Laerm;60995;52.154;4.498;2023-02-24T01:16:37;43.65;37.31;56.82;;
72415;Laerm;60995;52.154;4.498;2023-02-24T01:18:53;42.75;36.85;54.73;;
72415;Laerm;60995;52.154;4.498;2023-02-24T01:21:09;41.02;36.27;51.34;;
72415;Laerm;60995;52.154;4.498;2023-02-24T01:23:29;42.06;36.29;57.24;;
72415;Laerm;60995;52.154;4.498;2023-02-24T01:25:46;41.36;37.12;58.66;;
72415;Laerm;60995;52.154;4.498;2023-02-24T01:28:02;41.18;36.87;50.47;;
72415;Laerm;60995;52.154;4.498;2023-02-24T01:30:19;42.06;37.16;50.00;;
72415;Laerm;60995;52.154;4.498;2023-02-24T01:32:35;41.87;36.64;49.14;;
72415;Laerm;60995;52.154;4.498;2023-02-24T01:34:52;41.95;36.40;55.71;;
72415;Laerm;60995;52.154;4.498;2023-02-24T01:37:09;40.82;36.52;47.53;;
72415;Laerm;60995;52.154;4.498;2023-02-24T01:39:25;40.77;36.09;47.22;;
72415;Laerm;60995;52.154;4.498;2023-02-24T01:41:44;40.92;36.19;47.26;;
72415;Laerm;60995;52.154;4.498;2023-02-24T01:46:51;41.35;37.00;50.71;;
72415;Laerm;60995;52.154;4.498;2023-02-24T01:49:16;42.59;36.80;53.35;;
72415;Laerm;60995;52.154;4.498;2023-02-24T01:51:45;43.52;37.12;58.98;;
72415;Laerm;60995;52.154;4.498;2023-02-24T01:54:08;41.88;36.47;53.52;;
72415;Laerm;60995;52.154;4.498;2023-02-24T01:56:29;41.80;36.80;55.15;;
72415;Laerm;60995;52.154;4.498;2023-02-24T01:58:46;41.52;37.09;49.58;;
72415;Laerm;60995;52.154;4.498;2023-02-24T02:01:02;43.27;37.02;53.25;;
72415;Laerm;60995;52.154;4.498;2023-02-24T02:03:29;41.00;36.48;52.51;;
72415;Laerm;60995;52.154;4.498;2023-02-24T02:05:46;42.11;36.78;50.88;;
72415;Laerm;60995;52.154;4.498;2023-02-24T02:08:03;41.33;36.71;53.24;;
72415;Laerm;60995;52.154;4.498;2023-02-24T02:10:19;40.79;37.06;47.67;;
72415;Laerm;60995;52.154;4.498;2023-02-24T02:12:39;40.70;36.80;47.99;;
72415;Laerm;60995;52.154;4.498;2023-02-24T02:14:59;42.71;37.01;52.30;;
72415;Laerm;60995;52.154;4.498;2023-02-24T02:18:04;41.70;36.93;49.33;;
72415;Laerm;60995;52.154;4.498;2023-02-24T02:20:56;42.51;36.28;53.08;;
72415;Laerm;60995;52.154;4.498;2023-02-24T02:35:09;41.33;36.64;50.72;;
72415;Laerm;60995;52.154;4.498;2023-02-24T02:37:40;40.47;36.58;50.60;;
72415;Laerm;60995;52.154;4.498;2023-02-24T02:40:28;40.89;36.67;62.45;;
72415;Laerm;60995;52.154;4.498;2023-02-24T02:43:19;40.56;36.40;47.22;;
72415;Laerm;60995;52.154;4.498;2023-02-24T02:45:55;40.74;36.86;48.51;;
72415;Laerm;60995;52.154;4.498;2023-02-24T02:48:20;40.59;35.54;47.89;;
72415;Laerm;60995;52.154;4.498;2023-02-24T02:50:47;41.56;36.54;59.33;;
72415;Laerm;60995;52.154;4.498;2023-02-24T02:53:18;43.62;35.51;60.29;;
72415;Laerm;60995;52.154;4.498;2023-02-24T02:55:49;42.46;36.69;54.83;;
72415;Laerm;60995;52.154;4.498;2023-02-24T02:58:16;41.27;36.12;58.34;;
72415;Laerm;60995;52.154;4.498;2023-02-24T03:00:45;41.31;36.20;50.06;;
72415;Laerm;60995;52.154;4.498;2023-02-24T03:03:15;41.63;36.77;52.59;;
72415;Laerm;60995;52.154;4.498;2023-02-24T03:05:41;42.40;36.60;51.83;;
72415;Laerm;60995;52.154;4.498;2023-02-24T03:08:05;42.85;36.91;54.17;;
72415;Laerm;60995;52.154;4.498;2023-02-24T03:10:28;42.43;36.65;54.43;;
72415;Laerm;60995;52.154;4.498;2023-02-24T03:12:56;40.80;36.44;48.76;;
72415;Laerm;60995;52.154;4.498;2023-02-24T03:15:16;41.84;36.99;51.35;;
72415;Laerm;60995;52.154;4.498;2023-02-24T03:17:40;42.70;37.11;52.61;;
72415;Laerm;60995;52.154;4.498;2023-02-24T03:20:19;40.93;36.85;50.09;;
72415;Laerm;60995;52.154;4.498;2023-02-24T03:25:10;41.09;36.90;47.58;;
72415;Laerm;60995;52.154;4.498;2023-02-24T03:29:56;40.93;36.81;49.87;;
72415;Laerm;60995;52.154;4.498;2023-02-24T03:32:28;41.23;37.16;52.46;;
72415;Laerm;60995;52.154;4.498;2023-02-24T03:34:57;41.62;37.18;52.75;;
72415;Laerm;60995;52.154;4.498;2023-02-24T03:37:16;40.89;36.73;48.35;;
72415;Laerm;60995;52.154;4.498;2023-02-24T03:39:40;42.08;36.63;52.60;;
72415;Laerm;60995;52.154;4.498;2023-02-24T03:42:13;41.88;36.03;55.72;;
72415;Laerm;60995;52.154;4.498;2023-02-24T03:44:32;41.77;36.55;53.00;;
72415;Laerm;60995;52.154;4.498;2023-02-24T03:46:48;42.13;36.67;51.65;;
72415;Laerm;60995;52.154;4.498;2023-02-24T03:49:09;41.40;36.61;48.15;;
72415;Laerm;60995;52.154;4.498;2023-02-24T03:51:31;41.04;36.40;50.78;;
72415;Laerm;60995;52.154;4.498;2023-02-24T03:54:34;41.66;35.87;54.69;;
72415;Laerm;60995;52.154;4.498;2023-02-24T03:57:15;42.96;36.69;54.74;;
72415;Laerm;60995;52.154;4.498;2023-02-24T03:59:57;40.82;35.90;48.76;;
72415;Laerm;60995;52.154;4.498;2023-02-24T04:02:36;40.74;36.60;48.13;;
72415;Laerm;60995;52.154;4.498;2023-02-24T04:05:13;40.84;36.79;49.22;;
72415;Laerm;60995;52.154;4.498;2023-02-24T04:07:54;41.88;35.98;52.41;;
72415;Laerm;60995;52.154;4.498;2023-02-24T04:10:41;41.57;37.14;52.00;;
72415;Laerm;60995;52.154;4.498;2023-02-24T04:15:53;42.42;36.93;53.82;;
72415;Laerm;60995;52.154;4.498;2023-02-24T04:18:28;41.70;36.95;51.93;;
72415;Laerm;60995;52.154;4.498;2023-02-24T04:20:46;40.77;36.37;47.42;;
72415;Laerm;60995;52.154;4.498;2023-02-24T04:23:20;40.85;36.71;47.43;;
72415;Laerm;60995;52.154;4.498;2023-02-24T04:25:43;43.72;36.27;55.12;;
72415;Laerm;60995;52.154;4.498;2023-02-24T04:28:01;43.76;37.06;57.56;;
72415;Laerm;60995;52.154;4.498;2023-02-24T04:30:21;42.26;37.44;52.46;;
72415;Laerm;60995;52.154;4.498;2023-02-24T04:32:40;43.02;36.97;51.56;;
72415;Laerm;60995;52.154;4.498;2023-02-24T04:35:06;43.90;38.39;55.93;;
72415;Laerm;60995;52.154;4.498;2023-02-24T04:37:24;44.90;38.54;57.20;;
72415;Laerm;60995;52.154;4.498;2023-02-24T04:39:40;43.63;37.54;51.62;;
72415;Laerm;60995;52.154;4.498;2023-02-24T04:41:58;44.77;38.26;56.16;;
72415;Laerm;60995;52.154;4.498;2023-02-24T04:44:21;46.84;38.59;59.55;;
72415;Laerm;60995;52.154;4.498;2023-02-24T04:46:37;46.19;38.31;57.50;;
72415;Laerm;60995;52.154;4.498;2023-02-24T04:48:53;46.01;38.76;55.28;;
72415;Laerm;60995;52.154;4.498;2023-02-24T04:51:12;44.45;38.04;55.09;;
72415;Laerm;60995;52.154;4.498;2023-02-24T04:53:28;43.33;37.95;53.84;;
72415;Laerm;60995;52.154;4.498;2023-02-24T04:55:47;44.65;37.72;54.72;;
72415;Laerm;60995;52.154;4.498;2023-02-24T04:58:03;45.09;37.94;55.79;;
72415;Laerm;60995;52.154;4.498;2023-02-24T05:00:20;46.03;37.93;58.38;;
72415;Laerm;60995;52.154;4.498;2023-02-24T05:02:41;44.93;38.25;58.98;;
72415;Laerm;60995;52.154;4.498;2023-02-24T05:04:57;44.93;38.16;54.25;;
72415;Laerm;60995;52.154;4.498;2023-02-24T05:07:15;44.75;38.13;54.20;;
72415;Laerm;60995;52.154;4.498;2023-02-24T05:09:31;47.51;38.07;56.38;;
72415;Laerm;60995;52.154;4.498;2023-02-24T05:11:51;42.80;38.17;53.94;;
72415;Laerm;60995;52.154;4.498;2023-02-24T05:14:12;44.21;38.06;56.56;;
72415;Laerm;60995;52.154;4.498;2023-02-24T05:16:31;46.26;37.25;55.62;;
72415;Laerm;60995;52.154;4.498;2023-02-24T05:18:47;45.79;38.15;55.78;;
72415;Laerm;60995;52.154;4.498;2023-02-24T05:21:13;45.67;38.81;54.75;;
72415;Laerm;60995;52.154;4.498;2023-02-24T05:23:48;46.40;37.82;58.15;;
72415;Laerm;60995;52.154;4.498;2023-02-24T05:26:07;47.37;38.91;60.35;;
72415;Laerm;60995;52.154;4.498;2023-02-24T05:28:25;48.24;39.04;68.44;;
72415;Laerm;60995;52.154;4.498;2023-02-24T05:30:41;47.05;37.86;54.98;;
72415;Laerm;60995;52.154;4.498;2023-02-24T05:32:58;47.03;39.03;55.11;;
72415;Laerm;60995;52.154;4.498;2023-02-24T05:35:14;44.02;37.71;56.91;;
72415;Laerm;60995;52.154;4.498;2023-02-24T05:37:30;47.36;39.50;55.50;;
72415;Laerm;60995;52.154;4.498;2023-02-24T05:39:49;47.43;39.04;65.12;;
72415;Laerm;60995;52.154;4.498;2023-02-24T05:42:05;48.04;38.81;57.97;;
72415;Laerm;60995;52.154;4.498;2023-02-24T05:44:25;46.14;39.01;58.79;;
72415;Laerm;60995;52.154;4.498;2023-02-24T05:46:45;45.55;38.52;54.62;;
72415;Laerm;60995;52.154;4.498;2023-02-24T05:49:05;47.17;38.35;59.66;;
72415;Laerm;60995;52.154;4.498;2023-02-24T05:51:32;49.02;40.69;56.76;;
72415;Laerm;60995;52.154;4.498;2023-02-24T05:53:52;46.40;39.49;54.35;;
72415;Laerm;60995;52.154;4.498;2023-02-24T05:56:11;47.32;38.88;56.92;;
72415;Laerm;60995;52.154;4.498;2023-02-24T05:58:28;48.19;39.55;70.41;;
72415;Laerm;60995;52.154;4.498;2023-02-24T06:00:44;48.44;40.86;56.37;;
72415;Laerm;60995;52.154;4.498;2023-02-24T06:03:01;49.04;41.33;57.50;;
72415;Laerm;60995;52.154;4.498;2023-02-24T06:05:23;46.60;39.73;61.79;;
72415;Laerm;60995;52.154;4.498;2023-02-24T06:07:42;48.01;39.83;65.72;;
72415;Laerm;60995;52.154;4.498;2023-02-24T06:10:02;56.46;39.48;77.99;;
72415;Laerm;60995;52.154;4.498;2023-02-24T06:12:30;47.56;40.27;59.93;;
72415;Laerm;60995;52.154;4.498;2023-02-24T06:14:47;50.00;41.67;67.45;;
72415;Laerm;60995;52.154;4.498;2023-02-24T06:17:03;49.02;42.60;61.26;;
72415;Laerm;60995;52.154;4.498;2023-02-24T06:19:19;49.61;40.03;60.91;;
72415;Laerm;60995;52.154;4.498;2023-02-24T06:21:40;48.90;40.53;62.39;;
72415;Laerm;60995;52.154;4.498;2023-02-24T06:23:58;52.05;43.43;64.08;;
72415;Laerm;60995;52.154;4.498;2023-02-24T06:26:14;49.51;40.70;64.52;;
72415;Laerm;60995;52.154;4.498;2023-02-24T06:28:34;49.14;42.25;61.85;;
72415;Laerm;60995;52.154;4.498;2023-02-24T06:30:50;50.80;42.14;63.14;;
72415;Laerm;60995;52.154;4.498;2023-02-24T06:33:06;52.17;44.12;66.37;;
72415;Laerm;60995;52.154;4.498;2023-02-24T06:35:22;52.09;42.68;61.24;;
72415;Laerm;60995;52.154;4.498;2023-02-24T06:37:39;49.13;39.94;60.98;;
72415;Laerm;60995;52.154;4.498;2023-02-24T06:39:56;49.35;42.44;63.89;;
72415;Laerm;60995;52.154;4.498;2023-02-24T06:42:13;51.56;41.94;64.63;;
72415;Laerm;60995;52.154;4.498;2023-02-24T06:44:35;52.47;46.02;61.73;;
72415;Laerm;60995;52.154;4.498;2023-02-24T06:46:52;50.43;42.55;62.28;;
72415;Laerm;60995;52.154;4.498;2023-02-24T06:49:08;51.97;42.09;66.54;;
72415;Laerm;60995;52.154;4.498;2023-02-24T06:51:24;51.21;41.23;71.98;;
72415;Laerm;60995;52.154;4.498;2023-02-24T06:53:45;51.45;42.60;59.85;;
72415;Laerm;60995;52.154;4.498;2023-02-24T06:56:06;54.65;45.34;71.71;;
72415;Laerm;60995;52.154;4.498;2023-02-24T06:58:29;52.64;42.11;71.58;;
72415;Laerm;60995;52.154;4.498;2023-02-24T07:00:46;48.87;42.77;61.84;;
72415;Laerm;60995;52.154;4.498;2023-02-24T07:03:16;51.06;42.41;62.49;;
72415;Laerm;60995;52.154;4.498;2023-02-24T07:05:32;51.12;42.03;58.11;;
72415;Laerm;60995;52.154;4.498;2023-02-24T07:07:49;49.10;41.85;57.00;;
72415;Laerm;60995;52.154;4.498;2023-02-24T07:10:06;53.75;41.92;67.19;;
72415;Laerm;60995;52.154;4.498;2023-02-24T07:12:24;49.58;42.61;56.98;;
72415;Laerm;60995;52.154;4.498;2023-02-24T07:14:40;51.34;45.06;57.41;;
72415;Laerm;60995;52.154;4.498;2023-02-24T07:16:57;51.20;43.10;61.41;;
72415;Laerm;60995;52.154;4.498;2023-02-24T07:19:15;50.68;43.56;61.40;;
72415;Laerm;60995;52.154;4.498;2023-02-24T07:21:31;50.39;43.77;62.26;;
72415;Laerm;60995;52.154;4.498;2023-02-24T07:23:55;50.97;42.96;60.98;;
72415;Laerm;60995;52.154;4.498;2023-02-24T07:26:18;51.70;45.91;60.54;;
72415;Laerm;60995;52.154;4.498;2023-02-24T07:28:35;50.34;44.01;59.84;;
72415;Laerm;60995;52.154;4.498;2023-02-24T07:30:54;50.84;44.90;60.48;;
72415;Laerm;60995;52.154;4.498;2023-02-24T07:33:12;50.53;44.04;61.37;;
72415;Laerm;60995;52.154;4.498;2023-02-24T07:35:30;50.79;43.74;57.83;;
72415;Laerm;60995;52.154;4.498;2023-02-24T07:37:46;49.53;42.98;55.17;;
72415;Laerm;60995;52.154;4.498;2023-02-24T07:40:06;55.18;45.56;68.80;;
72415;Laerm;60995;52.154;4.498;2023-02-24T07:42:23;52.39;45.03;61.50;;
72415;Laerm;60995;52.154;4.498;2023-02-24T07:44:40;53.55;46.03;64.09;;
72415;Laerm;60995;52.154;4.498;2023-02-24T07:46:59;50.57;43.96;60.31;;
72415;Laerm;60995;52.154;4.498;2023-02-24T07:49:22;50.12;43.07;56.62;;
72415;Laerm;60995;52.154;4.498;2023-02-24T07:51:46;49.98;44.47;59.72;;
72415;Laerm;60995;52.154;4.498;2023-02-24T07:54:09;50.31;43.72;60.08;;
72415;Laerm;60995;52.154;4.498;2023-02-24T07:56:29;51.75;45.10;60.96;;
72415;Laerm;60995;52.154;4.498;2023-02-24T07:58:48;51.76;45.52;59.33;;
72415;Laerm;60995;52.154;4.498;2023-02-24T08:01:08;51.81;44.21;66.48;;
72415;Laerm;60995;52.154;4.498;2023-02-24T08:03:36;49.78;41.62;61.66;;
72415;Laerm;60995;52.154;4.498;2023-02-24T08:05:56;50.89;44.43;67.75;;
72415;Laerm;60995;52.154;4.498;2023-02-24T08:08:27;52.32;42.47;67.59;;
72415;Laerm;60995;52.154;4.498;2023-02-24T08:10:43;51.29;42.43;69.30;;
72415;Laerm;60995;52.154;4.498;2023-02-24T08:13:02;51.38;43.05;61.92;;
72415;Laerm;60995;52.154;4.498;2023-02-24T08:15:26;51.06;43.64;63.14;;
72415;Laerm;60995;52.154;4.498;2023-02-24T08:17:49;50.23;43.20;64.68;;
72415;Laerm;60995;52.154;4.498;2023-02-24T08:20:09;49.12;41.93;62.29;;
72415;Laerm;60995;52.154;4.498;2023-02-24T08:22:28;49.09;41.68;60.64;;
72415;Laerm;60995;52.154;4.498;2023-02-24T08:24:55;51.01;42.71;65.43;;
72415;Laerm;60995;52.154;4.498;2023-02-24T08:27:16;49.90;42.58;60.89;;
72415;Laerm;60995;52.154;4.498;2023-02-24T08:29:37;49.07;41.99;58.19;;
72415;Laerm;60995;52.154;4.498;2023-02-24T08:32:13;49.97;41.63;59.74;;
72415;Laerm;60995;52.154;4.498;2023-02-24T08:34:31;48.88;41.13;60.31;;
72415;Laerm;60995;52.154;4.498;2023-02-24T08:36:50;50.36;42.96;62.03;;
72415;Laerm;60995;52.154;4.498;2023-02-24T08:39:10;49.93;43.93;60.03;;
72415;Laerm;60995;52.154;4.498;2023-02-24T08:41:29;50.87;42.22;60.65;;
72415;Laerm;60995;52.154;4.498;2023-02-24T08:43:59;49.40;42.10;62.16;;
72415;Laerm;60995;52.154;4.498;2023-02-24T08:46:21;52.31;44.21;68.53;;
72415;Laerm;60995;52.154;4.498;2023-02-24T08:48:56;49.82;42.86;61.86;;
72415;Laerm;60995;52.154;4.498;2023-02-24T08:51:29;50.27;43.53;61.65;;
72415;Laerm;60995;52.154;4.498;2023-02-24T08:53:46;50.99;43.83;63.00;;
72415;Laerm;60995;52.154;4.498;2023-02-24T08:56:03;51.99;43.58;64.89;;
72415;Laerm;60995;52.154;4.498;2023-02-24T08:58:28;52.45;43.57;69.18;;
72415;Laerm;60995;52.154;4.498;2023-02-24T09:00:46;52.78;47.42;72.20;;
72415;Laerm;60995;52.154;4.498;2023-02-24T09:03:08;52.78;44.38;70.31;;
72415;Laerm;60995;52.154;4.498;2023-02-24T09:05:25;56.95;47.50;74.18;;
72415;Laerm;60995;52.154;4.498;2023-02-24T09:07:43;52.75;44.94;70.08;;
72415;Laerm;60995;52.154;4.498;2023-02-24T09:10:08;51.04;43.53;69.66;;
72415;Laerm;60995;52.154;4.498;2023-02-24T09:12:29;51.69;45.21;66.70;;
72415;Laerm;60995;52.154;4.498;2023-02-24T09:14:45;54.66;47.46;67.44;;
72415;Laerm;60995;52.154;4.498;2023-02-24T09:17:06;54.18;43.81;69.27;;
72415;Laerm;60995;52.154;4.498;2023-02-24T09:19:29;50.36;44.41;62.26;;
72415;Laerm;60995;52.154;4.498;2023-02-24T09:22:01;53.65;44.25;65.18;;
72415;Laerm;60995;52.154;4.498;2023-02-24T09:24:31;53.12;43.52;62.73;;
72415;Laerm;60995;52.154;4.498;2023-02-24T09:26:48;50.49;44.18;60.27;;
72415;Laerm;60995;52.154;4.498;2023-02-24T09:29:04;51.41;43.57;60.28;;
72415;Laerm;60995;52.154;4.498;2023-02-24T09:31:40;49.90;43.33;60.00;;
72415;Laerm;60995;52.154;4.498;2023-02-24T09:34:10;50.35;43.10;59.92;;
72415;Laerm;60995;52.154;4.498;2023-02-24T09:36:33;51.23;43.35;60.95;;
72415;Laerm;60995;52.154;4.498;2023-02-24T09:38:59;51.52;43.88;64.24;;
72415;Laerm;60995;52.154;4.498;2023-02-24T09:44:15;50.55;42.49;60.90;;
72415;Laerm;60995;52.154;4.498;2023-02-24T09:46:40;50.99;42.68;63.75;;
72415;Laerm;60995;52.154;4.498;2023-02-24T09:49:16;50.66;44.34;63.90;;
72415;Laerm;60995;52.154;4.498;2023-02-24T09:51:33;50.68;43.65;62.81;;
72415;Laerm;60995;52.154;4.498;2023-02-24T09:53:57;51.18;43.96;62.65;;
72415;Laerm;60995;52.154;4.498;2023-02-24T09:56:37;53.54;43.51;66.94;;
72415;Laerm;60995;52.154;4.498;2023-02-24T09:59:06;55.42;46.65;65.40;;
72415;Laerm;60995;52.154;4.498;2023-02-24T10:01:50;50.54;43.46;64.15;;
72415;Laerm;60995;52.154;4.498;2023-02-24T10:04:33;50.81;43.87;64.98;;
72415;Laerm;60995;52.154;4.498;2023-02-24T10:07:09;54.15;44.18;66.94;;
72415;Laerm;60995;52.154;4.498;2023-02-24T10:09:42;50.83;43.15;63.49;;
72415;Laerm;60995;52.154;4.498;2023-02-24T10:14:57;51.35;42.36;61.66;;
72415;Laerm;60995;52.154;4.498;2023-02-24T10:17:34;51.81;44.14;63.67;;
72415;Laerm;60995;52.154;4.498;2023-02-24T10:20:23;51.52;44.62;62.11;;
72415;Laerm;60995;52.154;4.498;2023-02-24T10:22:58;52.45;44.02;61.68;;
72415;Laerm;60995;52.154;4.498;2023-02-24T10:25:53;52.25;43.81;65.68;;
72415;Laerm;60995;52.154;4.498;2023-02-24T10:28:24;54.27;44.34;66.55;;
72415;Laerm;60995;52.154;4.498;2023-02-24T10:31:11;51.72;44.22;63.69;;
72415;Laerm;60995;52.154;4.498;2023-02-24T10:33:43;51.00;42.89;63.84;;
72415;Laerm;60995;52.154;4.498;2023-02-24T10:36:17;51.12;43.87;62.60;;
72415;Laerm;60995;52.154;4.498;2023-02-24T10:38:35;51.74;44.92;64.14;;
72415;Laerm;60995;52.154;4.498;2023-02-24T10:40:53;51.44;43.73;63.74;;
72415;Laerm;60995;52.154;4.498;2023-02-24T10:43:19;52.26;44.40;63.28;;
72415;Laerm;60995;52.154;4.498;2023-02-24T10:45:46;52.71;44.38;62.88;;
72415;Laerm;60995;52.154;4.498;2023-02-24T10:48:06;51.42;42.86;65.09;;
72415;Laerm;60995;52.154;4.498;2023-02-24T10:50:32;51.81;44.59;63.02;;
72415;Laerm;60995;52.154;4.498;2023-02-24T10:53:10;51.49;44.49;61.74;;
72415;Laerm;60995;52.154;4.498;2023-02-24T10:55:46;53.57;45.56;64.50;;
72415;Laerm;60995;52.154;4.498;2023-02-24T10:58:03;51.38;44.92;60.61;;
72415;Laerm;60995;52.154;4.498;2023-02-24T11:00:47;50.95;43.10;62.53;;
72415;Laerm;60995;52.154;4.498;2023-02-24T11:03:16;54.26;42.37;66.91;;
72415;Laerm;60995;52.154;4.498;2023-02-24T11:05:50;52.41;45.28;64.00;;
72415;Laerm;60995;52.154;4.498;2023-02-24T11:08:21;51.72;43.59;66.87;;
72415;Laerm;60995;52.154;4.498;2023-02-24T11:10:56;51.40;42.36;61.28;;
72415;Laerm;60995;52.154;4.498;2023-02-24T11:13:22;50.36;43.19;61.14;;
72415;Laerm;60995;52.154;4.498;2023-02-24T11:15:57;50.14;42.39;64.52;;
72415;Laerm;60995;52.154;4.498;2023-02-24T11:18:49;50.03;41.73;60.62;;
72415;Laerm;60995;52.154;4.498;2023-02-24T11:21:11;51.77;42.77;61.38;;
72415;Laerm;60995;52.154;4.498;2023-02-24T11:23:40;56.52;44.76;76.54;;
72415;Laerm;60995;52.154;4.498;2023-02-24T11:26:09;49.49;41.88;60.96;;
72415;Laerm;60995;52.154;4.498;2023-02-24T11:28:45;49.37;42.32;61.41;;
72415;Laerm;60995;52.154;4.498;2023-02-24T11:36:58;52.85;47.59;58.57;;
72415;Laerm;60995;52.154;4.498;2023-02-24T11:39:47;53.21;44.73;68.22;;
72415;Laerm;60995;52.154;4.498;2023-02-24T11:42:44;51.17;43.90;62.56;;
72415;Laerm;60995;52.154;4.498;2023-02-24T11:45:18;52.43;46.51;61.48;;
72415;Laerm;60995;52.154;4.498;2023-02-24T11:47:45;53.19;47.37;61.31;;
72415;Laerm;60995;52.154;4.498;2023-02-24T11:50:31;54.17;42.87;66.78;;
72415;Laerm;60995;52.154;4.498;2023-02-24T11:52:54;54.70;47.01;65.23;;
72415;Laerm;60995;52.154;4.498;2023-02-24T11:55:27;55.63;45.96;76.46;;
72415;Laerm;60995;52.154;4.498;2023-02-24T11:57:55;52.52;44.95;62.66;;
72415;Laerm;60995;52.154;4.498;2023-02-24T12:00:21;51.74;44.12;59.96;;
72415;Laerm;60995;52.154;4.498;2023-02-24T12:05:37;51.77;45.47;60.47;;
72415;Laerm;60995;52.154;4.498;2023-02-24T12:08:44;52.06;45.56;61.10;;
72415;Laerm;60995;52.154;4.498;2023-02-24T12:10:55;51.99;44.63;61.32;;
72415;Laerm;60995;52.154;4.498;2023-02-24T12:13:31;51.48;44.17;62.70;;
72415;Laerm;60995;52.154;4.498;2023-02-24T12:18:26;54.04;41.68;71.07;;
72415;Laerm;60995;52.154;4.498;2023-02-24T12:20:54;50.75;41.66;60.77;;
72415;Laerm;60995;52.154;4.498;2023-02-24T12:23:27;54.01;40.65;71.95;;
72415;Laerm;60995;52.154;4.498;2023-02-24T12:28:30;52.87;43.60;65.72;;
72415;Laerm;60995;52.154;4.498;2023-02-24T12:33:45;51.45;40.61;65.11;;
72415;Laerm;60995;52.154;4.498;2023-02-24T12:36:44;51.82;42.12;65.78;;
72415;Laerm;60995;52.154;4.498;2023-02-24T12:39:18;55.01;44.17;69.31;;
72415;Laerm;60995;52.154;4.498;2023-02-24T12:45:02;53.49;42.02;70.43;;
72415;Laerm;60995;52.154;4.498;2023-02-24T12:58:09;52.20;41.65;63.94;;
72415;Laerm;60995;52.154;4.498;2023-02-24T13:06:59;52.82;39.89;67.27;;
72415;Laerm;60995;52.154;4.498;2023-02-24T13:14:38;50.42;42.15;61.71;;
72415;Laerm;60995;52.154;4.498;2023-02-24T13:21:42;52.59;41.96;69.40;;
72415;Laerm;60995;52.154;4.498;2023-02-24T13:24:01;50.95;43.05;61.65;;
72415;Laerm;60995;52.154;4.498;2023-02-24T13:26:26;50.74;42.44;60.65;;
72415;Laerm;60995;52.154;4.498;2023-02-24T13:28:42;50.26;40.78;62.09;;
72415;Laerm;60995;52.154;4.498;2023-02-24T13:31:11;52.26;43.77;74.12;;
72415;Laerm;60995;52.154;4.498;2023-02-24T13:33:46;51.78;44.32;60.27;;
72415;Laerm;60995;52.154;4.498;2023-02-24T13:36:18;49.41;42.47;60.60;;
72415;Laerm;60995;52.154;4.498;2023-02-24T13:44:00;53.38;46.74;61.82;;
72415;Laerm;60995;52.154;4.498;2023-02-24T13:46:18;49.24;41.63;61.04;;
72415;Laerm;60995;52.154;4.498;2023-02-24T13:51:53;51.76;43.97;64.55;;
72415;Laerm;60995;52.154;4.498;2023-02-24T13:55:06;52.19;46.22;64.03;;
72415;Laerm;60995;52.154;4.498;2023-02-24T14:02:58;51.45;44.37;62.06;;
72415;Laerm;60995;52.154;4.498;2023-02-24T14:05:24;55.40;42.74;73.97;;
72415;Laerm;60995;52.154;4.498;2023-02-24T14:07:41;49.36;40.64;61.03;;
72415;Laerm;60995;52.154;4.498;2023-02-24T14:10:13;53.54;43.29;67.99;;
72415;Laerm;60995;52.154;4.498;2023-02-24T14:12:34;48.65;42.47;64.90;;
72415;Laerm;60995;52.154;4.498;2023-02-24T14:14:53;51.55;44.28;60.89;;
72415;Laerm;60995;52.154;4.498;2023-02-24T14:17:33;51.71;42.55;72.52;;
72415;Laerm;60995;52.154;4.498;2023-02-24T14:19:51;52.31;43.78;71.48;;
72415;Laerm;60995;52.154;4.498;2023-02-24T14:22:19;50.68;43.53;61.65;;
72415;Laerm;60995;52.154;4.498;2023-02-24T14:24:35;52.72;44.41;65.24;;
72415;Laerm;60995;52.154;4.498;2023-02-24T14:26:55;49.85;43.11;63.76;;
72415;Laerm;60995;52.154;4.498;2023-02-24T14:29:21;51.61;43.18;65.23;;
72415;Laerm;60995;52.154;4.498;2023-02-24T14:31:40;50.06;43.62;61.56;;
72415;Laerm;60995;52.154;4.498;2023-02-24T14:34:00;51.00;41.82;68.34;;
72415;Laerm;60995;52.154;4.498;2023-02-24T14:36:23;51.99;44.37;67.51;;
72415;Laerm;60995;52.154;4.498;2023-02-24T14:38:42;50.58;42.49;67.64;;
72415;Laerm;60995;52.154;4.498;2023-02-24T14:41:21;50.97;40.69;62.26;;
72415;Laerm;60995;52.154;4.498;2023-02-24T14:43:40;48.69;43.49;61.88;;
72415;Laerm;60995;52.154;4.498;2023-02-24T14:46:04;50.67;44.19;61.99;;
72415;Laerm;60995;52.154;4.498;2023-02-24T14:48:29;53.14;43.78;65.49;;
72415;Laerm;60995;52.154;4.498;2023-02-24T14:50:46;51.11;43.11;62.66;;
72415;Laerm;60995;52.154;4.498;2023-02-24T14:53:11;50.23;42.59;74.63;;
72415;Laerm;60995;52.154;4.498;2023-02-24T14:55:39;51.40;43.42;64.27;;
72415;Laerm;60995;52.154;4.498;2023-02-24T14:58:16;51.10;41.91;64.62;;